createdAt,value
2019-04-06T00:02:30.197Z,77.72
2019-04-06T00:04:59.827Z,77.22
2019-04-06T00:07:29.934Z,76.56
2019-04-06T00:09:59.824Z,77.57
2019-04-06T00:12:29.905Z,77.75
2019-04-06T00:14:59.812Z,77.67
2019-04-06T00:17:29.898Z,78.67
2019-04-06T00:19:59.741Z,79.48
2019-04-06T00:22:29.495Z,79.36
2019-04-06T00:24:59.368Z,79.57
2019-04-06T00:27:29.326Z,79.84
2019-04-06T00:29:59.128Z,79.85
2019-04-06T00:32:35.853Z,79.93
2019-04-06T00:35:06.110Z,80.40
2019-04-06T00:37:36.005Z,80.69
2019-04-06T00:40:06.316Z,80.54
2019-04-06T00:42:36.166Z,80.47
2019-04-06T00:45:06.409Z,81.09
2019-04-06T00:47:36.184Z,81.08
2019-04-06T00:50:06.638Z,80.82
2019-04-06T00:52:36.639Z,80.36
2019-04-06T00:55:06.580Z,80.43
2019-04-06T00:57:36.592Z,81.02
2019-04-06T01:00:06.678Z,82.30
2019-04-06T01:02:36.631Z,82.48
2019-04-06T01:05:07.362Z,81.54
2019-04-06T01:07:37.260Z,80.40
2019-04-06T01:10:07.649Z,79.32
2019-04-06T01:12:37.555Z,79.47
2019-04-06T01:15:07.650Z,79.44
2019-04-06T01:17:37.614Z,78.79
2019-04-06T01:20:08.096Z,78.87
2019-04-06T01:22:37.914Z,78.84
2019-04-06T01:25:08.174Z,79.22
2019-04-06T01:27:38.151Z,78.79
2019-04-06T01:30:08.769Z,77.33
2019-04-06T01:32:38.630Z,77.68
2019-04-06T01:35:08.801Z,77.50
2019-04-06T01:37:38.731Z,77.94
2019-04-06T01:40:09.501Z,79.33
2019-04-06T01:42:39.292Z,79.33
2019-04-06T01:45:09.197Z,79.17
2019-04-06T01:47:39.054Z,79.56
2019-04-06T01:50:09.383Z,80.09
2019-04-06T01:52:39.252Z,79.61
2019-04-06T01:55:09.095Z,79.37
2019-04-06T01:57:39.074Z,79.01
2019-04-06T02:00:11.886Z,79.13
2019-04-06T02:02:43.907Z,79.28
2019-04-06T02:05:14.095Z,79.78
2019-04-06T02:07:43.873Z,80.10
2019-04-06T02:10:14.001Z,79.34
2019-04-06T02:12:43.906Z,79.04
2019-04-06T02:15:14.284Z,79.14
2019-04-06T02:17:44.144Z,79.46
2019-04-06T02:20:14.169Z,79.92
2019-04-06T02:22:44.096Z,79.84
2019-04-06T02:25:14.011Z,79.43
2019-04-06T02:27:43.724Z,79.07
2019-04-06T02:30:40.184Z,78.14
2019-04-06T02:33:26.957Z,77.83
2019-04-06T02:36:13.259Z,77.74
2019-04-06T02:39:05.001Z,77.56
2019-04-06T02:41:50.031Z,77.87
2019-04-06T02:44:19.805Z,78.13
2019-04-06T02:46:49.810Z,78.05
2019-04-06T02:49:19.673Z,77.61
2019-04-06T02:51:49.452Z,77.82
2019-04-06T02:54:19.256Z,78.04
2019-04-06T02:56:49.183Z,77.17
2019-04-06T02:59:19.246Z,77.12
2019-04-06T03:01:49.033Z,76.96
2019-04-06T03:04:19.138Z,77.32
2019-04-06T03:06:49.156Z,77.50
2019-04-06T03:09:19.107Z,77.26
2019-04-06T03:11:49.038Z,76.80
2019-04-06T03:14:19.274Z,76.86
2019-04-06T03:16:49.011Z,77.09
2019-04-06T03:19:18.770Z,77.52
2019-04-06T03:21:48.539Z,77.85
2019-04-06T03:24:18.365Z,78.10
2019-04-06T03:26:59.827Z,78.54
2019-04-06T03:29:19.696Z,78.59
2019-04-06T03:31:49.548Z,78.97
2019-04-06T03:34:21.614Z,78.89
2019-04-06T03:36:51.125Z,79.22
2019-04-06T03:39:20.924Z,79.29
2019-04-06T03:41:50.652Z,79.61
2019-04-06T03:44:20.408Z,79.87
2019-04-06T03:46:50.365Z,80.87
2019-04-06T03:49:20.089Z,80.02
2019-04-06T03:51:50.113Z,79.85
2019-04-06T03:54:19.871Z,79.55
2019-04-06T03:56:51.061Z,79.16
2019-04-06T03:59:20.892Z,79.04
2019-04-06T04:01:50.758Z,79.30
2019-04-06T04:04:20.506Z,79.38
2019-04-06T04:06:50.647Z,79.36
2019-04-06T04:09:20.509Z,79.29
2019-04-06T04:11:50.385Z,78.56
2019-04-06T04:14:20.291Z,76.84
2019-04-06T04:16:50.267Z,75.68
2019-04-06T04:19:20.092Z,75.61
2019-04-06T04:21:49.727Z,75.38
2019-04-06T04:24:20.811Z,74.80
2019-04-06T04:26:50.768Z,74.49
2019-04-06T04:29:20.482Z,74.67
2019-04-06T04:31:50.473Z,74.96
2019-04-06T04:34:20.172Z,75.51
2019-04-06T04:36:50.122Z,75.59
2019-04-06T04:39:20.072Z,75.50
2019-04-06T04:41:49.813Z,75.73
2019-04-06T04:44:19.651Z,75.35
2019-04-06T04:46:49.629Z,75.29
2019-04-06T04:49:19.458Z,75.07
2019-04-06T04:51:49.035Z,74.69
2019-04-06T04:54:18.953Z,74.83
2019-04-06T04:56:48.906Z,75.43
2019-04-06T04:59:18.715Z,75.24
2019-04-06T05:01:48.736Z,75.29
2019-04-06T05:04:18.518Z,75.37
2019-04-06T05:06:48.371Z,75.05
2019-04-06T05:09:18.854Z,75.96
2019-04-06T05:11:49.102Z,76.27
2019-04-06T05:14:54.341Z,75.91
2019-04-06T05:17:24.296Z,75.42
2019-04-06T05:19:55.007Z,74.10
2019-04-06T05:22:24.921Z,72.77
2019-04-06T05:24:55.882Z,72.91
2019-04-06T05:27:26.009Z,73.03
2019-04-06T05:29:55.675Z,72.58
2019-04-06T05:32:25.521Z,71.66
2019-04-06T05:34:57.890Z,71.04
2019-04-06T05:37:26.899Z,71.00
2019-04-06T05:39:56.671Z,70.98
2019-04-06T05:42:26.645Z,70.56
2019-04-06T05:44:56.508Z,71.00
2019-04-06T05:47:27.567Z,71.46
2019-04-06T05:49:57.494Z,71.51
2019-04-06T05:52:27.280Z,72.61
2019-04-06T05:54:57.330Z,73.23
2019-04-06T05:57:27.269Z,72.84
2019-04-06T05:59:57.080Z,72.70
2019-04-06T06:02:26.945Z,72.66
2019-04-06T06:04:56.824Z,72.39
2019-04-06T06:07:26.670Z,71.77
2019-04-06T06:09:56.496Z,71.66
2019-04-06T06:12:26.374Z,71.12
2019-04-06T06:14:56.366Z,71.53
2019-04-06T06:17:25.940Z,70.25
2019-04-06T06:19:55.797Z,67.96
2019-04-06T06:22:25.578Z,67.32
2019-04-06T06:24:55.395Z,66.31
2019-04-06T06:27:26.538Z,67.04
2019-04-06T06:29:56.355Z,67.86
2019-04-06T06:32:26.261Z,68.44
2019-04-06T06:34:56.100Z,69.02
2019-04-06T06:37:25.785Z,69.26
2019-04-06T06:39:55.625Z,68.48
2019-04-06T06:42:25.361Z,67.98
2019-04-06T06:44:55.464Z,67.37
2019-04-06T06:47:25.252Z,66.48
2019-04-06T06:49:56.501Z,66.69
2019-04-06T06:52:26.214Z,66.46
2019-04-06T06:54:56.313Z,66.14
2019-04-06T06:57:26.042Z,65.19
2019-04-06T06:59:56.027Z,65.02
2019-04-06T07:02:25.790Z,65.13
2019-04-06T07:04:56.948Z,65.56
2019-04-06T07:07:26.844Z,65.49
2019-04-06T07:10:05.490Z,66.29
2019-04-06T07:12:28.144Z,65.53
2019-04-06T07:14:58.018Z,64.94
2019-04-06T07:17:27.849Z,64.43
2019-04-06T07:19:58.782Z,63.85
2019-04-06T07:22:28.587Z,64.17
2019-04-06T07:24:58.395Z,63.71
2019-04-06T07:27:28.300Z,63.93
2019-04-06T07:29:58.248Z,64.23
2019-04-06T07:32:28.109Z,65.96
2019-04-06T07:34:58.012Z,64.76
2019-04-06T07:37:27.886Z,63.88
2019-04-06T07:39:57.895Z,63.63
2019-04-06T07:42:27.538Z,63.80
2019-04-06T07:44:57.326Z,63.68
2019-04-06T07:47:27.218Z,63.39
2019-04-06T07:49:56.961Z,62.55
2019-04-06T07:52:26.798Z,62.54
2019-04-06T07:54:56.814Z,62.85
2019-04-06T07:57:26.715Z,62.63
2019-04-06T07:59:56.516Z,62.01
2019-04-06T08:02:26.699Z,60.87
2019-04-06T08:04:56.554Z,62.14
2019-04-06T08:07:26.471Z,63.18
2019-04-06T08:09:56.435Z,63.04
2019-04-06T08:12:26.317Z,62.68
2019-04-06T08:14:57.522Z,63.48
2019-04-06T08:17:27.375Z,62.87
2019-04-06T08:19:57.301Z,64.52
2019-04-06T08:22:28.570Z,65.67
2019-04-06T08:24:58.254Z,64.61
2019-04-06T08:27:28.084Z,63.18
2019-04-06T08:29:58.240Z,64.27
2019-04-06T08:32:27.784Z,63.32
2019-04-06T08:34:57.876Z,63.82
2019-04-06T08:37:29.028Z,64.19
2019-04-06T08:39:58.924Z,64.33
2019-04-06T08:42:28.813Z,66.21
2019-04-06T08:44:58.862Z,66.11
2019-04-06T08:47:29.864Z,65.79
2019-04-06T08:49:59.734Z,66.01
2019-04-06T08:52:29.377Z,65.62
2019-04-06T08:54:59.225Z,65.50
2019-04-06T08:57:29.071Z,64.75
2019-04-06T08:59:59.187Z,63.85
2019-04-06T09:02:28.898Z,62.31
2019-04-06T09:04:58.698Z,62.16
2019-04-06T09:07:28.421Z,61.56
2019-04-06T09:09:58.370Z,61.13
2019-04-06T09:12:28.113Z,61.47
2019-04-06T09:14:58.091Z,60.94
2019-04-06T09:17:27.954Z,62.13
2019-04-06T09:19:57.935Z,61.55
2019-04-06T09:22:27.730Z,61.48
2019-04-06T09:24:57.699Z,60.91
2019-04-06T09:27:27.620Z,61.33
2019-04-06T09:29:57.537Z,60.82
2019-04-06T09:32:27.345Z,61.81
2019-04-06T09:34:58.541Z,62.64
2019-04-06T09:37:28.293Z,63.44
2019-04-06T09:39:58.122Z,63.87
2019-04-06T09:42:28.088Z,64.04
2019-04-06T09:45:19.662Z,64.23
2019-04-06T09:47:59.983Z,63.60
2019-04-06T09:50:54.618Z,63.64
2019-04-06T09:53:46.046Z,64.20
2019-04-06T09:56:42.056Z,63.12
2019-04-06T09:59:35.883Z,63.69
2019-04-06T10:02:11.953Z,62.86
2019-04-06T10:05:15.547Z,63.72
2019-04-06T10:07:59.342Z,63.85
2019-04-06T10:10:39.231Z,62.79
2019-04-06T10:13:39.874Z,61.80
2019-04-06T10:16:26.909Z,62.74
2019-04-06T10:19:24.653Z,62.66
2019-04-06T10:22:31.726Z,61.63
2019-04-06T10:25:10.891Z,61.37
2019-04-06T10:27:55.612Z,62.66
2019-04-06T10:30:59.836Z,62.27
2019-04-06T10:33:51.173Z,63.36
2019-04-06T10:36:42.660Z,62.48
2019-04-06T10:39:23.477Z,62.68
2019-04-06T10:42:04.926Z,62.16
2019-04-06T10:45:08.711Z,62.10
2019-04-06T10:48:00.288Z,62.79
2019-04-06T10:50:50.359Z,62.69
2019-04-06T10:53:48.596Z,61.83
2019-04-06T10:56:35.802Z,60.56
2019-04-06T10:59:31.856Z,61.71
2019-04-06T11:02:20.531Z,62.62
2019-04-06T11:05:13.284Z,62.57
2019-04-06T11:08:04.529Z,62.23
2019-04-06T11:10:58.705Z,61.45
2019-04-06T11:13:46.111Z,61.28
2019-04-06T11:16:43.651Z,60.30
2019-04-06T11:19:34.903Z,62.44
2019-04-06T11:22:18.009Z,62.67
2019-04-06T11:25:09.243Z,62.32
2019-04-06T11:28:04.513Z,61.78
2019-04-06T11:30:43.436Z,62.36
2019-04-06T11:33:38.578Z,62.91
2019-04-06T11:36:32.946Z,63.19
2019-04-06T11:39:12.234Z,62.55
2019-04-06T11:42:12.854Z,63.24
2019-04-06T11:45:01.976Z,62.35
2019-04-06T11:47:48.692Z,61.62
2019-04-06T11:50:26.276Z,62.35
2019-04-06T11:53:08.942Z,61.07
2019-04-06T11:55:49.471Z,60.12
2019-04-06T11:58:33.609Z,60.71
2019-04-06T12:01:34.634Z,59.75
2019-04-06T12:04:32.847Z,59.33
2019-04-06T12:07:20.777Z,60.61
2019-04-06T12:10:03.024Z,60.20
2019-04-06T12:13:06.913Z,58.53
2019-04-06T12:15:55.480Z,60.29
2019-04-06T12:18:41.594Z,59.95
2019-04-06T12:21:35.916Z,58.78
2019-04-06T12:24:25.100Z,59.01
2019-04-06T12:27:29.633Z,60.71
2019-04-06T12:30:42.004Z,61.21
2019-04-06T12:33:29.227Z,60.48
2019-04-06T12:36:20.663Z,60.95
2019-04-06T12:38:58.681Z,61.58
2019-04-06T12:41:53.784Z,60.54
2019-04-06T12:44:39.087Z,59.36
2019-04-06T12:47:39.541Z,60.23
2019-04-06T12:50:18.403Z,60.44
2019-04-06T12:53:09.351Z,59.61
2019-04-06T12:56:05.069Z,58.92
2019-04-06T12:59:03.003Z,57.28
2019-04-06T13:01:57.981Z,57.34
2019-04-06T13:04:53.360Z,57.42
2019-04-06T13:07:40.362Z,59.24
2019-04-06T13:10:35.486Z,57.52
2019-04-06T13:13:17.346Z,59.78
2019-04-06T13:16:05.909Z,59.30
2019-04-06T13:18:41.683Z,58.54
2019-04-06T13:21:47.079Z,57.97
2019-04-06T13:24:41.603Z,56.85
2019-04-06T13:27:26.460Z,58.11
2019-04-06T13:30:08.045Z,56.68
2019-04-06T13:32:57.298Z,53.06
2019-04-06T13:35:36.552Z,56.03
2019-04-06T13:38:36.101Z,57.23
2019-04-06T13:41:25.489Z,58.74
2019-04-06T13:44:05.137Z,57.34
2019-04-06T13:46:48.913Z,54.95
2019-04-06T13:49:36.391Z,53.12
2019-04-06T13:52:15.198Z,57.83
2019-04-06T13:55:02.306Z,59.16
2019-04-06T13:57:54.537Z,60.09
2019-04-06T14:00:30.574Z,55.98
2019-04-06T14:03:15.815Z,56.82
2019-04-06T14:06:22.800Z,56.19
2019-04-06T14:09:12.123Z,58.47
2019-04-06T14:12:04.751Z,55.50
2019-04-06T14:14:47.911Z,53.90
2019-04-06T14:17:35.007Z,55.16
2019-04-06T14:20:33.042Z,54.95
2019-04-06T14:23:37.218Z,54.83
2019-04-06T14:26:23.129Z,54.89
2019-04-06T14:28:59.837Z,57.08
2019-04-06T14:31:45.277Z,58.10
2019-04-06T14:34:49.128Z,56.97
2019-04-06T14:37:36.522Z,59.50
2019-04-06T14:40:30.457Z,59.37
2019-04-06T14:43:22.478Z,61.51
2019-04-06T14:46:08.885Z,62.80
2019-04-06T14:48:51.160Z,63.42
2019-04-06T14:51:28.160Z,63.92
2019-04-06T14:54:18.439Z,64.47
2019-04-06T14:57:10.205Z,64.14
2019-04-06T15:00:12.039Z,64.46
2019-04-06T15:03:09.617Z,66.39
2019-04-06T15:05:57.236Z,66.94
2019-04-06T15:09:01.129Z,67.79
2019-04-06T15:11:47.695Z,68.51
2019-04-06T15:14:36.369Z,69.30
2019-04-06T15:17:21.779Z,69.21
2019-04-06T15:20:15.003Z,68.41
2019-04-06T15:23:09.636Z,68.88
2019-04-06T15:25:47.999Z,70.77
2019-04-06T15:28:45.937Z,71.61
2019-04-06T15:31:27.981Z,72.74
2019-04-06T15:34:12.856Z,73.45
2019-04-06T15:36:55.602Z,73.75
2019-04-06T15:39:43.437Z,73.62
2019-04-06T15:42:24.764Z,74.21
2019-04-06T15:45:13.485Z,76.31
2019-04-06T15:48:08.274Z,76.96
2019-04-06T15:51:04.027Z,77.60
2019-04-06T15:53:52.644Z,79.35
2019-04-06T15:56:32.038Z,80.93
2019-04-06T15:59:11.305Z,80.97
2019-04-06T16:01:59.107Z,80.37
2019-04-06T16:04:33.611Z,79.91
2019-04-06T16:07:15.663Z,80.03
2019-04-06T16:10:11.310Z,79.48
2019-04-06T16:13:04.460Z,79.87
2019-04-06T16:16:08.292Z,79.98
2019-04-06T16:18:49.726Z,81.09
2019-04-06T16:21:37.609Z,80.74
2019-04-06T16:24:19.207Z,81.14
2019-04-06T16:27:10.640Z,81.51
2019-04-06T16:30:17.894Z,82.12
2019-04-06T16:33:05.516Z,82.61
2019-04-06T16:36:06.565Z,83.28
2019-04-06T16:38:58.470Z,83.22
2019-04-06T16:41:38.856Z,82.93
2019-04-06T16:44:33.110Z,83.24
2019-04-06T16:47:22.910Z,83.88
2019-04-06T16:50:18.101Z,84.22
2019-04-06T16:53:05.969Z,84.36
2019-04-06T16:56:06.806Z,84.61
2019-04-06T16:58:58.479Z,84.50
2019-04-06T17:01:52.205Z,83.02
2019-04-06T17:04:36.478Z,82.34
2019-04-06T17:07:21.493Z,82.26
2019-04-06T17:10:15.876Z,82.31
2019-04-06T17:13:06.401Z,82.34
2019-04-06T17:15:42.698Z,82.46
2019-04-06T17:18:30.407Z,82.85
2019-04-06T17:21:31.586Z,83.23
2019-04-06T17:24:24.923Z,83.85
2019-04-06T17:27:16.303Z,84.31
2019-04-06T17:29:58.841Z,84.49
2019-04-06T17:32:38.170Z,84.37
2019-04-06T17:35:27.553Z,85.01
2019-04-06T17:38:22.623Z,85.74
2019-04-06T17:41:02.777Z,85.76
2019-04-06T17:43:47.049Z,85.97
2019-04-06T17:46:38.464Z,85.87
2019-04-06T17:49:29.754Z,86.19
2019-04-06T17:52:24.186Z,86.25
2019-04-06T17:55:04.886Z,85.40
2019-04-06T17:57:52.270Z,85.45
2019-04-06T18:00:38.877Z,85.98
2019-04-06T18:03:18.233Z,86.89
2019-04-06T18:06:05.296Z,87.08
2019-04-06T18:08:52.745Z,86.92
2019-04-06T18:11:30.826Z,86.53
2019-04-06T18:14:00.805Z,85.60
2019-04-06T18:16:33.726Z,85.26
2019-04-06T18:19:03.415Z,85.42
2019-04-06T18:21:33.366Z,85.86
2019-04-06T18:24:03.639Z,86.31
2019-04-06T18:26:33.348Z,87.08
2019-04-06T18:29:03.162Z,87.58
2019-04-06T18:31:58.142Z,87.89
2019-04-06T18:34:28.525Z,88.22
2019-04-06T18:37:35.766Z,89.49
2019-04-06T18:40:12.409Z,89.21
2019-04-06T18:42:43.411Z,88.63
2019-04-06T18:45:13.531Z,89.09
2019-04-06T18:47:44.492Z,88.75
2019-04-06T18:50:14.821Z,88.34
2019-04-06T18:52:44.769Z,88.27
2019-04-06T18:55:14.939Z,88.22
2019-04-06T18:57:45.149Z,88.13
2019-04-06T19:00:15.408Z,88.57
2019-04-06T19:02:48.303Z,89.11
2019-04-06T19:05:19.739Z,89.00
2019-04-06T19:07:49.835Z,89.67
2019-04-06T19:10:20.312Z,89.68
2019-04-06T19:12:50.725Z,89.48
2019-04-06T19:15:20.870Z,89.23
2019-04-06T19:17:50.633Z,88.63
2019-04-06T19:20:21.307Z,87.99
2019-04-06T19:22:51.244Z,87.72
2019-04-06T19:25:21.803Z,87.21
2019-04-06T19:27:51.911Z,87.62
2019-04-06T19:30:21.941Z,88.27
2019-04-06T19:32:52.304Z,88.85
2019-04-06T19:35:22.397Z,88.81
2019-04-06T19:37:52.102Z,89.37
2019-04-06T19:40:22.586Z,89.85
2019-04-06T19:42:52.393Z,89.87
2019-04-06T19:45:23.289Z,89.90
2019-04-06T19:47:53.093Z,89.88
2019-04-06T19:50:23.015Z,90.12
2019-04-06T19:52:52.999Z,90.67
2019-04-06T19:55:23.000Z,91.88
2019-04-06T19:57:53.936Z,91.52
2019-04-06T20:00:23.930Z,90.93
2019-04-06T20:02:53.998Z,92.03
2019-04-06T20:05:24.071Z,92.60
2019-04-06T20:07:54.053Z,93.01
2019-04-06T20:10:24.062Z,96.41
2019-04-06T20:12:53.992Z,97.73
2019-04-06T20:15:23.725Z,97.77
2019-04-06T20:17:53.819Z,96.95
2019-04-06T20:20:23.907Z,96.45
2019-04-06T20:22:53.733Z,97.05
2019-04-06T20:25:23.972Z,96.03
2019-04-06T20:27:55.434Z,95.24
2019-04-06T20:30:25.682Z,95.09
2019-04-06T20:32:55.953Z,94.93
2019-04-06T20:35:27.120Z,95.63
2019-04-06T20:37:58.121Z,95.75
2019-04-06T20:40:27.907Z,95.26
2019-04-06T20:42:57.787Z,95.80
2019-04-06T20:45:28.431Z,95.31
2019-04-06T20:47:58.535Z,94.60
2019-04-06T20:50:29.905Z,94.23
2019-04-06T20:52:59.548Z,93.92
2019-04-06T20:55:29.706Z,93.69
2019-04-06T20:57:59.744Z,93.73
2019-04-06T21:00:29.799Z,94.45
2019-04-06T21:02:59.604Z,95.39
2019-04-06T21:05:29.380Z,95.09
2019-04-06T21:07:59.291Z,94.73
2019-04-06T21:10:29.246Z,94.00
2019-04-06T21:12:59.983Z,94.53
2019-04-06T21:15:29.925Z,95.31
2019-04-06T21:17:59.913Z,95.32
2019-04-06T21:20:30.079Z,94.38
2019-04-06T21:23:00.135Z,94.92
2019-04-06T21:25:30.209Z,95.48
2019-04-06T21:28:00.021Z,97.43
2019-04-06T21:30:30.068Z,96.76
2019-04-06T21:32:59.977Z,94.41
2019-04-06T21:35:30.098Z,93.75
2019-04-06T21:37:59.984Z,93.21
2019-04-06T21:40:29.759Z,94.27
2019-04-06T21:43:00.034Z,96.10
2019-04-06T21:45:30.053Z,98.12
2019-04-06T21:48:00.435Z,97.04
2019-04-06T21:50:30.413Z,96.79
2019-04-06T21:53:00.151Z,98.04
2019-04-06T21:55:30.066Z,97.59
2019-04-06T21:57:59.926Z,95.84
2019-04-06T22:00:47.743Z,94.21
2019-04-06T22:03:17.908Z,92.68
2019-04-06T22:05:47.785Z,92.58
2019-04-06T22:08:18.815Z,92.58
2019-04-06T22:10:49.076Z,91.39
2019-04-06T22:13:19.488Z,89.02
2019-04-06T22:15:49.359Z,88.28
2019-04-06T22:18:19.313Z,89.61
2019-04-06T22:20:49.167Z,89.50
2019-04-06T22:23:19.821Z,90.28
2019-04-06T22:25:50.432Z,94.32
2019-04-06T22:28:20.779Z,96.22
2019-04-06T22:30:50.844Z,97.73
2019-04-06T22:33:20.787Z,98.05
2019-04-06T22:35:50.707Z,96.88
2019-04-06T22:38:20.507Z,95.66
2019-04-06T22:40:52.989Z,95.18
2019-04-06T22:43:22.924Z,95.82
2019-04-06T22:45:53.021Z,95.11
2019-04-06T22:48:23.141Z,95.01
2019-04-06T22:50:53.066Z,94.68
2019-04-06T22:53:22.988Z,93.42
2019-04-06T22:55:52.949Z,93.04
2019-04-06T22:58:22.723Z,93.31
2019-04-06T23:00:56.701Z,92.73
2019-04-06T23:03:45.503Z,93.10
2019-04-06T23:06:19.782Z,94.23
2019-04-06T23:08:49.562Z,95.49
2019-04-06T23:11:19.546Z,95.52
2019-04-06T23:13:49.304Z,93.31
2019-04-06T23:16:19.080Z,92.73
2019-04-06T23:18:49.311Z,93.03
2019-04-06T23:21:19.121Z,92.57
2019-04-06T23:23:48.954Z,93.36
2019-04-06T23:26:18.672Z,92.19
2019-04-06T23:28:49.029Z,91.60
2019-04-06T23:31:18.887Z,92.88
2019-04-06T23:33:48.686Z,92.47
2019-04-06T23:36:19.187Z,90.18
2019-04-06T23:38:49.773Z,88.85
2019-04-06T23:41:20.119Z,87.57
2019-04-06T23:43:49.888Z,88.53
2019-04-06T23:46:19.709Z,89.46
2019-04-06T23:48:49.846Z,87.44
2019-04-06T23:51:20.033Z,87.01
2019-04-06T23:53:50.245Z,88.35
2019-04-06T23:56:20.668Z,89.24
2019-04-06T23:58:50.638Z,89.64
